Terminal Aerodrome Forecast
Issued by NWS

Home | Current Version | Previous Version | Text Only | Print | Product List | Glossary On
Versions: 1 2 3 4 5 6 7 8 9 10 11 12 13
000
FTUS45 KTWC 311738
TAFOLS
TAF
KOLS 311738Z 3118/0118 19010G18KT P6SM SKC
     FM312000 24010G20KT P6SM SCT100
     FM010300 16006KT P6SM FEW140
     FM010600 VRB03KT P6SM SKC=

USA.gov is the U.S. government's official web portal to all federal, state and local government web resources and services.